createdAt,value
2017-04-27T03:00:47.004Z,1014.26
2017-04-27T03:01:12.668Z,1014.25
2017-04-27T03:01:38.351Z,1014.27
2017-04-27T03:02:03.918Z,1014.23
2017-04-27T03:02:29.558Z,1014.29
2017-04-27T03:02:55.210Z,1014.27
2017-04-27T03:03:20.780Z,1014.27
2017-04-27T03:03:46.342Z,1014.26
2017-04-27T03:04:11.899Z,1014.26
2017-04-27T03:04:37.432Z,1014.25
2017-04-27T03:05:03.021Z,1014.28
2017-04-27T03:05:28.559Z,1014.26
2017-04-27T03:05:54.101Z,1014.28
2017-04-27T03:06:19.651Z,1014.25
2017-04-27T03:06:45.223Z,1014.28
2017-04-27T03:07:10.804Z,1014.27
2017-04-27T03:07:36.364Z,1014.23
2017-04-27T03:08:01.931Z,1014.25
2017-04-27T03:08:27.495Z,1014.22
2017-04-27T03:08:53.053Z,1014.22
2017-04-27T03:09:18.721Z,1014.23
2017-04-27T03:09:44.287Z,1014.24
2017-04-27T03:10:09.843Z,1014.23
2017-04-27T03:10:35.481Z,1014.23
2017-04-27T03:11:01.053Z,1014.25
2017-04-27T03:11:26.620Z,1014.26
2017-04-27T03:11:52.189Z,1014.25
2017-04-27T03:12:17.777Z,1014.22
2017-04-27T03:12:43.332Z,1014.25
2017-04-27T03:13:08.890Z,1014.26
2017-04-27T03:13:34.457Z,1014.23
2017-04-27T03:14:00.027Z,1014.25
2017-04-27T03:14:25.613Z,1014.29
2017-04-27T03:14:51.191Z,1014.23
2017-04-27T03:15:16.778Z,1014.24
2017-04-27T03:16:20.313Z,1014.25
2017-04-27T03:16:45.910Z,1014.25
2017-04-27T03:17:11.529Z,1014.21
2017-04-27T03:17:37.081Z,1014.24
2017-04-27T03:18:02.640Z,1014.24
2017-04-27T03:18:28.196Z,1014.24
2017-04-27T03:18:53.751Z,1014.28
2017-04-27T03:19:19.291Z,1014.3
2017-04-27T03:19:44.844Z,1014.28
2017-04-27T03:20:10.490Z,1014.28
2017-04-27T03:20:36.090Z,1014.27
2017-04-27T03:21:01.664Z,1014.26
2017-04-27T03:21:27.233Z,1014.29
2017-04-27T03:21:52.918Z,1014.3
2017-04-27T03:22:18.481Z,1014.34
2017-04-27T03:22:44.045Z,1014.31
2017-04-27T03:23:09.580Z,1014.32
2017-04-27T03:23:35.137Z,1014.29
2017-04-27T03:24:00.687Z,1014.31
2017-04-27T03:24:26.239Z,1014.33
2017-04-27T03:24:51.841Z,1014.31
2017-04-27T03:25:17.396Z,1014.31
2017-04-27T03:25:42.963Z,1014.31
2017-04-27T03:26:08.519Z,1014.31
2017-04-27T03:26:34.092Z,1014.33
2017-04-27T03:26:59.653Z,1014.36
2017-04-27T03:27:25.218Z,1014.31
2017-04-27T03:27:50.796Z,1014.35
2017-04-27T03:28:16.397Z,1014.33
2017-04-27T03:28:41.951Z,1014.35
2017-04-27T03:29:07.516Z,1014.39
2017-04-27T03:29:33.220Z,1014.37
2017-04-27T03:29:58.759Z,1014.4
2017-04-27T03:30:24.321Z,1014.37
2017-04-27T03:30:49.867Z,1014.42
2017-04-27T03:31:15.399Z,1014.45
2017-04-27T03:31:40.948Z,1014.43
2017-04-27T03:32:06.508Z,1014.43
2017-04-27T03:32:32.053Z,1014.41
2017-04-27T03:32:57.720Z,1014.44
2017-04-27T03:33:23.385Z,1014.37
2017-04-27T03:33:48.963Z,1014.4
2017-04-27T03:34:14.528Z,1014.43
2017-04-27T03:34:40.179Z,1014.43
2017-04-27T03:35:05.797Z,1014.42
2017-04-27T03:35:31.352Z,1014.42
2017-04-27T03:35:56.919Z,1014.45
2017-04-27T03:36:22.490Z,1014.45
2017-04-27T03:36:48.051Z,1014.44
2017-04-27T03:37:13.608Z,1014.42
2017-04-27T03:37:39.163Z,1014.47
2017-04-27T03:38:04.723Z,1014.45
2017-04-27T03:38:30.392Z,1014.46
2017-04-27T03:38:55.921Z,1014.45
2017-04-27T03:39:21.470Z,1014.41
2017-04-27T03:39:47.011Z,1014.44
2017-04-27T03:40:12.562Z,1014.45
2017-04-27T03:40:38.139Z,1014.43
2017-04-27T03:41:03.771Z,1014.47
2017-04-27T03:41:29.343Z,1014.44
2017-04-27T03:41:54.908Z,1014.46
2017-04-27T03:42:20.599Z,1014.45
2017-04-27T03:42:46.197Z,1014.48
2017-04-27T03:43:11.769Z,1014.46
2017-04-27T03:43:37.393Z,1014.45
2017-04-27T03:44:02.950Z,1014.48
2017-04-27T03:44:28.507Z,1014.49
2017-04-27T03:44:54.093Z,1014.47
2017-04-27T03:45:19.716Z,1014.45
2017-04-27T03:45:45.286Z,1014.48
2017-04-27T03:46:10.834Z,1014.47
2017-04-27T03:46:36.417Z,1014.44
2017-04-27T03:47:01.984Z,1014.45
2017-04-27T03:47:27.544Z,1014.45
2017-04-27T03:47:53.115Z,1014.45
2017-04-27T03:48:18.686Z,1014.45
2017-04-27T03:48:44.249Z,1014.47
2017-04-27T03:49:09.837Z,1014.46
2017-04-27T03:49:35.362Z,1014.43
2017-04-27T03:50:00.924Z,1014.5
2017-04-27T03:50:26.484Z,1014.49
2017-04-27T03:50:52.089Z,1014.49
2017-04-27T03:51:17.771Z,1014.47
2017-04-27T03:51:43.339Z,1014.5
2017-04-27T03:52:08.902Z,1014.5
2017-04-27T03:52:34.479Z,1014.51
2017-04-27T03:53:00.037Z,1014.5
2017-04-27T03:53:25.611Z,1014.52
2017-04-27T03:53:51.312Z,1014.52
2017-04-27T03:54:16.884Z,1014.47
2017-04-27T03:54:42.454Z,1014.49
2017-04-27T03:55:08.021Z,1014.56
2017-04-27T03:55:33.710Z,1014.49
2017-04-27T03:55:59.279Z,1014.45
2017-04-27T03:56:24.839Z,1014.49
2017-04-27T03:56:50.413Z,1014.46
2017-04-27T03:57:16.079Z,1014.49
2017-04-27T03:57:41.664Z,1014.48
2017-04-27T03:58:07.324Z,1014.48
2017-04-27T03:58:32.885Z,1014.5
2017-04-27T03:58:58.437Z,1014.45
2017-04-27T03:59:24.010Z,1014.46
2017-04-27T03:59:49.571Z,1014.48
2017-04-27T04:00:15.130Z,1014.45
2017-04-27T04:00:40.680Z,1014.46
2017-04-27T04:01:06.224Z,1014.5
2017-04-27T04:01:31.884Z,1014.49
2017-04-27T04:01:57.470Z,1014.48
2017-04-27T04:02:22.997Z,1014.45
2017-04-27T04:02:48.534Z,1014.47
2017-04-27T04:03:14.090Z,1014.5
2017-04-27T04:03:39.630Z,1014.52
2017-04-27T04:04:05.178Z,1014.51
2017-04-27T04:04:30.864Z,1014.45
2017-04-27T04:04:56.420Z,1014.51
2017-04-27T04:05:21.981Z,1014.49
2017-04-27T04:05:47.551Z,1014.48
2017-04-27T04:06:13.095Z,1014.51
2017-04-27T04:06:38.686Z,1014.5
2017-04-27T04:07:04.251Z,1014.46
2017-04-27T04:07:29.819Z,1014.49
2017-04-27T04:07:55.506Z,1014.53
2017-04-27T04:08:21.062Z,1014.53
2017-04-27T04:08:46.660Z,1014.52
2017-04-27T04:09:12.213Z,1014.54
2017-04-27T04:09:37.775Z,1014.52
2017-04-27T04:10:03.333Z,1014.5
2017-04-27T04:10:28.901Z,1014.53
2017-04-27T04:10:54.461Z,1014.49
2017-04-27T04:11:20.010Z,1014.53
2017-04-27T04:11:45.626Z,1014.54
2017-04-27T04:12:11.188Z,1014.55
2017-04-27T04:12:37.526Z,1014.51
2017-04-27T04:13:03.079Z,1014.54
2017-04-27T04:13:28.721Z,1014.51
2017-04-27T04:13:54.331Z,1014.56
2017-04-27T04:14:19.907Z,1014.55
2017-04-27T04:14:45.465Z,1014.56
2017-04-27T04:15:11.134Z,1014.54
2017-04-27T04:15:36.693Z,1014.53
2017-04-27T04:16:02.320Z,1014.57
2017-04-27T04:16:27.877Z,1014.54
2017-04-27T04:16:53.426Z,1014.58
2017-04-27T04:17:18.983Z,1014.57
2017-04-27T04:17:44.550Z,1014.55
2017-04-27T04:18:10.121Z,1014.58
2017-04-27T04:18:35.725Z,1014.55
2017-04-27T04:19:01.294Z,1014.57
2017-04-27T04:19:26.862Z,1014.53
2017-04-27T04:19:52.428Z,1014.59
2017-04-27T04:20:17.989Z,1014.58
2017-04-27T04:20:43.557Z,1014.59
2017-04-27T04:21:09.125Z,1014.56
2017-04-27T04:21:34.691Z,1014.59
2017-04-27T04:22:00.242Z,1014.55
2017-04-27T04:22:25.899Z,1014.54
2017-04-27T04:22:51.441Z,1014.56
2017-04-27T04:23:17.093Z,1014.59
2017-04-27T04:23:42.637Z,1014.6
2017-04-27T04:24:08.171Z,1014.57
2017-04-27T04:24:33.845Z,1014.6
2017-04-27T04:24:59.459Z,1014.6
2017-04-27T04:25:25.033Z,1014.56
2017-04-27T04:25:50.652Z,1014.59
2017-04-27T04:26:16.196Z,1014.59
2017-04-27T04:26:41.737Z,1014.58
2017-04-27T04:28:43.268Z,1014.53
2017-04-27T04:29:09.031Z,1014.59
2017-04-27T04:29:34.635Z,1014.61
2017-04-27T04:30:00.160Z,1014.57
2017-04-27T04:30:25.763Z,1014.56
2017-04-27T04:30:51.326Z,1014.56
2017-04-27T04:31:16.893Z,1014.58
2017-04-27T04:31:42.454Z,1014.59
2017-04-27T04:32:08.055Z,1014.58
2017-04-27T04:32:33.597Z,1014.55
2017-04-27T04:32:59.183Z,1014.61
2017-04-27T04:33:24.772Z,1014.6
2017-04-27T04:33:50.320Z,1014.59
2017-04-27T04:34:15.973Z,1014.57
2017-04-27T04:34:41.554Z,1014.58
2017-04-27T04:35:07.119Z,1014.59
2017-04-27T04:35:32.677Z,1014.58
2017-04-27T04:35:58.246Z,1014.59
2017-04-27T04:36:23.808Z,1014.61
2017-04-27T04:36:49.391Z,1014.6
2017-04-27T04:37:14.944Z,1014.59
2017-04-27T04:37:40.503Z,1014.6
2017-04-27T04:38:06.154Z,1014.61
2017-04-27T04:38:31.735Z,1014.6
2017-04-27T04:38:57.291Z,1014.63
2017-04-27T04:39:22.842Z,1014.61
2017-04-27T04:39:48.403Z,1014.61
2017-04-27T04:40:14.132Z,1014.6
2017-04-27T04:40:39.712Z,1014.66
2017-04-27T04:41:05.283Z,1014.62
2017-04-27T04:41:31.758Z,1014.64
2017-04-27T04:41:56.381Z,1014.66
2017-04-27T04:42:21.953Z,1014.63
2017-04-27T04:42:47.522Z,1014.65
2017-04-27T04:43:13.090Z,1014.63
2017-04-27T04:43:38.680Z,1014.67
2017-04-27T04:44:04.235Z,1014.63
2017-04-27T04:44:29.858Z,1014.64
2017-04-27T04:44:55.415Z,1014.62
2017-04-27T04:45:20.960Z,1014.64
2017-04-27T04:45:46.515Z,1014.64
2017-04-27T04:46:12.070Z,1014.63
2017-04-27T04:46:37.635Z,1014.63
2017-04-27T04:47:03.202Z,1014.65
2017-04-27T04:47:28.765Z,1014.66
2017-04-27T04:47:54.340Z,1014.6
2017-04-27T04:48:19.890Z,1014.61
2017-04-27T04:48:45.453Z,1014.64
2017-04-27T04:49:11.012Z,1014.66
2017-04-27T04:49:36.562Z,1014.6
2017-04-27T04:50:02.097Z,1014.66
2017-04-27T04:50:27.685Z,1014.62
2017-04-27T04:50:53.235Z,1014.66
2017-04-27T04:51:18.802Z,1014.65
2017-04-27T04:51:44.369Z,1014.63
2017-04-27T04:52:09.979Z,1014.63
2017-04-27T04:52:35.562Z,1014.65
2017-04-27T04:53:01.183Z,1014.67
2017-04-27T04:53:26.761Z,1014.66
2017-04-27T04:53:52.339Z,1014.66
2017-04-27T04:54:55.918Z,1014.68
2017-04-27T04:55:21.472Z,1014.66
2017-04-27T04:55:47.101Z,1014.7
2017-04-27T04:56:12.690Z,1014.68
2017-04-27T04:56:38.293Z,1014.67
2017-04-27T04:57:03.864Z,1014.66
2017-04-27T04:57:29.419Z,1014.66
2017-04-27T04:57:54.983Z,1014.67
2017-04-27T04:58:20.575Z,1014.64
2017-04-27T04:58:46.246Z,1014.68
2017-04-27T04:59:11.816Z,1014.66
2017-04-27T04:59:37.397Z,1014.65
2017-04-27T05:00:02.992Z,1014.65
2017-04-27T05:00:28.554Z,1014.66
2017-04-27T05:00:54.202Z,1014.65
2017-04-27T05:01:19.799Z,1014.63
2017-04-27T05:01:45.351Z,1014.62
2017-04-27T05:02:10.920Z,1014.64
2017-04-27T05:02:36.610Z,1014.61
2017-04-27T05:03:02.192Z,1014.62
2017-04-27T05:03:27.730Z,1014.63
2017-04-27T05:03:53.294Z,1014.64
2017-04-27T05:04:18.851Z,1014.64
2017-04-27T05:04:44.425Z,1014.66
2017-04-27T05:05:09.988Z,1014.69
2017-04-27T05:06:08.410Z,1014.67
2017-04-27T05:06:34.067Z,1014.66
2017-04-27T05:06:59.654Z,1014.69
2017-04-27T05:07:25.214Z,1014.65
2017-04-27T05:07:50.767Z,1014.71
2017-04-27T05:08:16.531Z,1014.67
2017-04-27T05:08:42.089Z,1014.69
2017-04-27T05:09:07.652Z,1014.7
2017-04-27T05:09:33.210Z,1014.69
2017-04-27T05:09:58.766Z,1014.74
2017-04-27T05:10:24.321Z,1014.71
2017-04-27T05:10:49.876Z,1014.67
2017-04-27T05:11:15.443Z,1014.66
2017-04-27T05:11:41.020Z,1014.67
2017-04-27T05:12:06.645Z,1014.65
2017-04-27T05:12:32.222Z,1014.68
2017-04-27T05:12:57.795Z,1014.7
2017-04-27T05:13:23.483Z,1014.7
2017-04-27T05:13:49.054Z,1014.7
2017-04-27T05:14:14.613Z,1014.69
2017-04-27T05:14:40.288Z,1014.7
2017-04-27T05:15:05.852Z,1014.71
2017-04-27T05:15:31.412Z,1014.73
2017-04-27T05:15:57.031Z,1014.72
2017-04-27T05:16:22.633Z,1014.7
2017-04-27T05:16:48.178Z,1014.72
2017-04-27T05:17:13.773Z,1014.71
2017-04-27T05:17:39.340Z,1014.72
2017-04-27T05:18:04.891Z,1014.73
2017-04-27T05:18:30.453Z,1014.73
2017-04-27T05:18:56.005Z,1014.72
2017-04-27T05:19:21.549Z,1014.7
2017-04-27T05:19:47.250Z,1014.74
2017-04-27T05:20:12.869Z,1014.74
2017-04-27T05:20:38.427Z,1014.75
2017-04-27T05:21:04.047Z,1014.81
2017-04-27T05:21:29.674Z,1014.77
2017-04-27T05:21:55.260Z,1014.83
2017-04-27T05:22:20.820Z,1014.8
2017-04-27T05:22:46.450Z,1014.78
2017-04-27T05:23:11.995Z,1014.8
2017-04-27T05:23:37.543Z,1014.82
2017-04-27T05:24:03.159Z,1014.84
2017-04-27T05:24:28.741Z,1014.84
2017-04-27T05:24:54.315Z,1014.84
2017-04-27T05:25:19.869Z,1014.82
2017-04-27T05:25:45.453Z,1014.82
2017-04-27T05:26:11.023Z,1014.85
2017-04-27T05:26:36.718Z,1014.8
2017-04-27T05:27:02.260Z,1014.88
2017-04-27T05:27:27.842Z,1014.8
2017-04-27T05:27:53.387Z,1014.82
2017-04-27T05:28:19.005Z,1014.82
2017-04-27T05:28:44.561Z,1014.86
2017-04-27T05:29:10.110Z,1014.86
2017-04-27T05:29:35.654Z,1014.82
2017-04-27T05:30:01.213Z,1014.82
2017-04-27T05:30:26.811Z,1014.79
2017-04-27T05:30:52.379Z,1014.82
2017-04-27T05:31:17.952Z,1014.83
2017-04-27T05:31:43.513Z,1014.82
2017-04-27T05:32:09.200Z,1014.82
2017-04-27T05:32:34.772Z,1014.85
2017-04-27T05:33:00.341Z,1014.84
2017-04-27T05:33:25.901Z,1014.81
2017-04-27T05:33:51.465Z,1014.85
2017-04-27T05:34:17.043Z,1014.88
2017-04-27T05:34:42.599Z,1014.84
2017-04-27T05:35:08.170Z,1014.87
2017-04-27T05:35:33.791Z,1014.86
2017-04-27T05:35:59.357Z,1014.87
2017-04-27T05:36:24.939Z,1014.85
2017-04-27T05:36:50.483Z,1014.85
2017-04-27T05:37:16.039Z,1014.86
2017-04-27T05:37:41.613Z,1014.86
2017-04-27T05:38:07.179Z,1014.92
2017-04-27T05:38:32.746Z,1014.88
2017-04-27T05:38:58.338Z,1014.91
2017-04-27T05:39:23.893Z,1014.95
2017-04-27T05:39:49.454Z,1014.94
2017-04-27T05:40:15.182Z,1014.97
2017-04-27T05:40:40.740Z,1014.92
2017-04-27T05:41:06.314Z,1014.98
2017-04-27T05:41:31.880Z,1014.95
2017-04-27T05:41:57.458Z,1014.97
2017-04-27T05:42:23.007Z,1014.96
2017-04-27T05:42:48.584Z,1014.98
2017-04-27T05:43:14.141Z,1014.96
2017-04-27T05:43:39.703Z,1014.95
2017-04-27T05:44:05.272Z,1014.99
2017-04-27T05:44:30.833Z,1014.99
2017-04-27T05:44:56.401Z,1014.95
2017-04-27T05:45:21.938Z,1015.01
2017-04-27T05:45:47.489Z,1015.04
2017-04-27T05:46:13.040Z,1015
2017-04-27T05:46:38.591Z,1015.01
2017-04-27T05:47:04.181Z,1015.01
2017-04-27T05:47:29.745Z,1014.98
2017-04-27T05:47:55.325Z,1014.96
2017-04-27T05:48:20.894Z,1014.99
2017-04-27T05:48:46.460Z,1014.98
2017-04-27T05:49:12.024Z,1015.03
2017-04-27T05:49:37.577Z,1015
2017-04-27T05:50:03.118Z,1014.98
2017-04-27T05:50:28.661Z,1014.97
2017-04-27T05:50:54.232Z,1014.99
2017-04-27T05:51:19.803Z,1014.94
2017-04-27T05:51:45.373Z,1014.97
2017-04-27T05:52:10.940Z,1014.98
2017-04-27T05:52:36.517Z,1015.01
2017-04-27T05:53:02.083Z,1015.05
2017-04-27T05:53:27.647Z,1014.99
2017-04-27T05:53:53.194Z,1015.01
2017-04-27T05:54:18.770Z,1015.01
2017-04-27T05:54:44.363Z,1015.01
2017-04-27T05:55:10.015Z,1015.04
2017-04-27T05:55:35.585Z,1015.02
2017-04-27T05:56:01.144Z,1014.98
2017-04-27T05:56:26.706Z,1015.02
2017-04-27T05:56:52.293Z,1015.02
2017-04-27T05:57:17.916Z,1014.99
2017-04-27T05:57:43.598Z,1014.98
2017-04-27T05:58:09.153Z,1015.03
2017-04-27T05:58:34.723Z,1015.01
2017-04-27T05:59:00.401Z,1014.99
2017-04-27T05:59:26.015Z,1015.03
2017-04-27T05:59:51.594Z,1015.02
2017-04-27T06:00:17.152Z,1015.01
2017-04-27T06:01:20.861Z,1015.07
2017-04-27T06:01:46.423Z,1015.05
2017-04-27T06:02:11.981Z,1015.04
2017-04-27T06:02:37.564Z,1015.03
2017-04-27T06:03:03.162Z,1014.99
2017-04-27T06:03:28.722Z,1014.98
2017-04-27T06:03:54.308Z,1015.01
2017-04-27T06:04:19.846Z,1014.98
2017-04-27T06:04:45.572Z,1014.99
2017-04-27T06:05:11.239Z,1014.97
2017-04-27T06:05:36.822Z,1014.97
2017-04-27T06:06:02.408Z,1014.98
2017-04-27T06:06:28.024Z,1015
2017-04-27T06:06:53.712Z,1014.96
2017-04-27T06:07:19.271Z,1014.97
2017-04-27T06:07:44.815Z,1014.98
2017-04-27T06:08:10.379Z,1015
2017-04-27T06:08:36.034Z,1014.97
2017-04-27T06:09:01.598Z,1014.96
2017-04-27T06:09:27.165Z,1014.97
2017-04-27T06:09:52.704Z,1014.99
2017-04-27T06:10:18.379Z,1014.99
2017-04-27T06:10:43.944Z,1015.08
2017-04-27T06:11:09.688Z,1015.06
2017-04-27T06:11:35.254Z,1015.05
2017-04-27T06:12:00.813Z,1015.09
2017-04-27T06:12:26.437Z,1015.08
2017-04-27T06:12:52.014Z,1015.09
2017-04-27T06:13:17.621Z,1015.09
2017-04-27T06:14:16.056Z,1015.15
2017-04-27T06:14:41.634Z,1015.16
2017-04-27T06:15:07.199Z,1015.14
2017-04-27T06:15:32.782Z,1015.14
2017-04-27T06:15:58.336Z,1015.13
2017-04-27T06:16:23.914Z,1015.16
2017-04-27T06:16:49.645Z,1015.18
2017-04-27T06:17:15.195Z,1015.12
2017-04-27T06:17:40.741Z,1015.13
2017-04-27T06:18:06.311Z,1015.08
2017-04-27T06:18:31.903Z,1015.09
2017-04-27T06:18:57.474Z,1015.11
2017-04-27T06:19:23.070Z,1015.07
2017-04-27T06:19:48.645Z,1015.07
2017-04-27T06:20:14.210Z,1015.15
2017-04-27T06:20:39.803Z,1015.15
2017-04-27T06:21:05.366Z,1015.13
2017-04-27T06:21:30.941Z,1015.14
2017-04-27T06:21:56.570Z,1015.12
2017-04-27T06:22:22.130Z,1015.1
2017-04-27T06:22:47.704Z,1015.15
2017-04-27T06:23:13.310Z,1015.16
2017-04-27T06:23:38.894Z,1015.16
2017-04-27T06:24:04.527Z,1015.16
2017-04-27T06:24:30.087Z,1015.17
2017-04-27T06:24:55.664Z,1015.15
2017-04-27T06:25:21.404Z,1015.14
2017-04-27T06:25:46.975Z,1015.13
2017-04-27T06:26:12.552Z,1015.16
2017-04-27T06:26:38.233Z,1015.14
2017-04-27T06:27:03.953Z,1015.11
2017-04-27T06:27:29.719Z,1015.14
2017-04-27T06:27:55.297Z,1015.16
2017-04-27T06:28:20.878Z,1015.14
2017-04-27T06:28:46.444Z,1015.17
2017-04-27T06:29:12.006Z,1015.16
2017-04-27T06:29:37.590Z,1015.16
2017-04-27T06:30:03.163Z,1015.15
2017-04-27T06:30:28.805Z,1015.16
2017-04-27T06:30:54.491Z,1015.18
2017-04-27T06:31:20.070Z,1015.19
2017-04-27T06:31:45.626Z,1015.19
2017-04-27T06:32:11.217Z,1015.15
2017-04-27T06:32:36.791Z,1015.22
2017-04-27T06:33:02.341Z,1015.21
2017-04-27T06:33:27.924Z,1015.24
2017-04-27T06:33:53.514Z,1015.17
2017-04-27T06:34:19.072Z,1015.18
2017-04-27T06:34:44.681Z,1015.21
2017-04-27T06:35:10.287Z,1015.21
2017-04-27T06:35:35.932Z,1015.23
2017-04-27T06:36:01.489Z,1015.21
2017-04-27T06:36:27.047Z,1015.2
2017-04-27T06:36:52.610Z,1015.22
2017-04-27T06:37:18.166Z,1015.25
2017-04-27T06:37:43.742Z,1015.22
2017-04-27T06:38:09.490Z,1015.22
2017-04-27T06:38:35.065Z,1015.25
2017-04-27T06:39:00.639Z,1015.21
2017-04-27T06:39:26.214Z,1015.25
2017-04-27T06:39:51.770Z,1015.27
2017-04-27T06:40:17.343Z,1015.25
2017-04-27T06:40:42.971Z,1015.27
2017-04-27T06:41:08.536Z,1015.22
2017-04-27T06:41:34.280Z,1015.25
2017-04-27T06:41:59.862Z,1015.25
2017-04-27T06:42:25.435Z,1015.23
2017-04-27T06:42:51.018Z,1015.28
2017-04-27T06:43:16.675Z,1015.25
2017-04-27T06:43:42.267Z,1015.28
2017-04-27T06:44:07.846Z,1015.28
2017-04-27T06:44:33.417Z,1015.27
2017-04-27T06:44:58.997Z,1015.29
2017-04-27T06:45:24.781Z,1015.29
2017-04-27T06:45:50.348Z,1015.31
2017-04-27T06:46:15.928Z,1015.28
2017-04-27T06:46:41.499Z,1015.32
2017-04-27T06:47:07.067Z,1015.31
2017-04-27T06:47:32.678Z,1015.3
2017-04-27T06:47:58.245Z,1015.3
2017-04-27T06:48:23.805Z,1015.31
2017-04-27T06:48:49.374Z,1015.32
2017-04-27T06:49:14.990Z,1015.31
2017-04-27T06:49:40.573Z,1015.29
2017-04-27T06:50:06.178Z,1015.3
2017-04-27T06:50:31.812Z,1015.27
2017-04-27T06:50:57.364Z,1015.29
2017-04-27T06:51:22.925Z,1015.27
2017-04-27T06:51:48.492Z,1015.3
2017-04-27T06:52:14.068Z,1015.28
2017-04-27T06:52:39.672Z,1015.27
2017-04-27T06:53:05.312Z,1015.26
2017-04-27T06:53:30.871Z,1015.31
2017-04-27T06:53:56.473Z,1015.3
2017-04-27T06:54:22.145Z,1015.29
2017-04-27T06:54:47.925Z,1015.3
2017-04-27T06:55:13.485Z,1015.28
2017-04-27T06:55:39.055Z,1015.3
2017-04-27T06:56:04.693Z,1015.31
2017-04-27T06:56:30.284Z,1015.29
2017-04-27T06:56:55.841Z,1015.29
2017-04-27T06:57:21.396Z,1015.29
2017-04-27T06:57:47.080Z,1015.29
2017-04-27T06:58:12.624Z,1015.29
2017-04-27T06:58:38.182Z,1015.28
2017-04-27T06:59:03.755Z,1015.27
2017-04-27T06:59:29.302Z,1015.29
2017-04-27T06:59:54.853Z,1015.26
2017-04-27T07:00:20.434Z,1015.29
2017-04-27T07:00:46.006Z,1015.33
2017-04-27T07:01:11.562Z,1015.26
2017-04-27T07:01:37.152Z,1015.25
2017-04-27T07:02:02.705Z,1015.3
2017-04-27T07:02:28.259Z,1015.26
2017-04-27T07:02:53.821Z,1015.28
2017-04-27T07:03:19.374Z,1015.26
2017-04-27T07:03:44.942Z,1015.28
2017-04-27T07:04:10.494Z,1015.29
2017-04-27T07:04:36.047Z,1015.28
2017-04-27T07:05:01.588Z,1015.22
2017-04-27T07:05:27.134Z,1015.24
2017-04-27T07:05:52.822Z,1015.22
2017-04-27T07:06:18.392Z,1015.27
2017-04-27T07:06:43.945Z,1015.28
2017-04-27T07:07:09.582Z,1015.26
2017-04-27T07:07:35.191Z,1015.23
2017-04-27T07:08:00.749Z,1015.26
2017-04-27T07:08:26.335Z,1015.27
2017-04-27T07:08:51.924Z,1015.27
2017-04-27T07:09:17.470Z,1015.2
2017-04-27T07:09:43.028Z,1015.25
2017-04-27T07:10:08.583Z,1015.22
2017-04-27T07:10:34.141Z,1015.25
2017-04-27T07:10:59.690Z,1015.25
2017-04-27T07:11:25.308Z,1015.23
2017-04-27T07:11:50.874Z,1015.28
2017-04-27T07:12:16.471Z,1015.27
2017-04-27T07:12:42.060Z,1015.25
2017-04-27T07:13:07.617Z,1015.27
2017-04-27T07:13:33.187Z,1015.27
2017-04-27T07:13:58.752Z,1015.21
2017-04-27T07:14:24.312Z,1015.24
2017-04-27T07:14:49.924Z,1015.2
2017-04-27T07:15:15.474Z,1015.3
2017-04-27T07:15:41.090Z,1015.27
2017-04-27T07:16:06.614Z,1015.29
2017-04-27T07:16:32.202Z,1015.25
2017-04-27T07:16:57.779Z,1015.25
2017-04-27T07:17:23.336Z,1015.26
2017-04-27T07:17:48.892Z,1015.31
2017-04-27T07:18:14.588Z,1015.29
2017-04-27T07:18:40.155Z,1015.27
2017-04-27T07:19:05.716Z,1015.25
2017-04-27T07:19:31.301Z,1015.25
2017-04-27T07:19:56.871Z,1015.26
2017-04-27T07:20:22.443Z,1015.26
2017-04-27T07:20:47.979Z,1015.27
2017-04-27T07:21:13.564Z,1015.23
2017-04-27T07:21:39.100Z,1015.3
2017-04-27T07:22:04.691Z,1015.27
2017-04-27T07:22:30.278Z,1015.25
2017-04-27T07:22:55.852Z,1015.28
2017-04-27T07:23:21.445Z,1015.27
2017-04-27T07:23:47.135Z,1015.25
2017-04-27T07:24:12.707Z,1015.27
2017-04-27T07:24:38.273Z,1015.26
2017-04-27T07:25:03.941Z,1015.29
2017-04-27T07:25:29.545Z,1015.29
2017-04-27T07:25:55.310Z,1015.31
2017-04-27T07:26:20.852Z,1015.26
2017-04-27T07:26:46.405Z,1015.25
2017-04-27T07:27:11.973Z,1015.29
2017-04-27T07:27:37.521Z,1015.3
2017-04-27T07:28:03.083Z,1015.31
2017-04-27T07:28:28.640Z,1015.28
2017-04-27T07:28:54.185Z,1015.33
2017-04-27T07:29:19.763Z,1015.34
2017-04-27T07:29:45.314Z,1015.24
2017-04-27T07:30:10.849Z,1015.24
2017-04-27T07:30:36.482Z,1015.3
2017-04-27T07:31:02.064Z,1015.31
2017-04-27T07:31:27.615Z,1015.28
2017-04-27T07:31:53.172Z,1015.27
2017-04-27T07:32:18.736Z,1015.31
2017-04-27T07:32:44.301Z,1015.23
2017-04-27T07:33:09.852Z,1015.28
2017-04-27T07:33:35.415Z,1015.26
2017-04-27T07:34:01.001Z,1015.32
2017-04-27T07:34:26.576Z,1015.33
2017-04-27T07:34:52.142Z,1015.28
2017-04-27T07:35:17.717Z,1015.24
2017-04-27T07:35:43.280Z,1015.23
2017-04-27T07:36:08.839Z,1015.23
2017-04-27T07:36:34.413Z,1015.22
2017-04-27T07:36:59.961Z,1015.26
2017-04-27T07:37:25.531Z,1015.26
2017-04-27T07:37:51.089Z,1015.24
2017-04-27T07:38:16.660Z,1015.24
2017-04-27T07:38:42.214Z,1015.22
2017-04-27T07:39:07.772Z,1015.24
2017-04-27T07:39:33.341Z,1015.21
2017-04-27T07:39:59.003Z,1015.21
2017-04-27T07:40:24.556Z,1015.2
2017-04-27T07:40:50.116Z,1015.23
2017-04-27T07:41:15.767Z,1015.21
2017-04-27T07:41:41.331Z,1015.25
2017-04-27T07:42:06.894Z,1015.24
2017-04-27T07:42:32.503Z,1015.25
2017-04-27T07:42:58.131Z,1015.28
2017-04-27T07:43:23.704Z,1015.26
2017-04-27T07:43:49.273Z,1015.24
2017-04-27T07:44:14.821Z,1015.25
2017-04-27T07:44:40.395Z,1015.24
2017-04-27T07:45:06.001Z,1015.24
2017-04-27T07:45:31.544Z,1015.2
2017-04-27T07:45:57.195Z,1015.2
2017-04-27T07:46:22.767Z,1015.21
2017-04-27T07:46:48.366Z,1015.21
2017-04-27T07:47:13.931Z,1015.21
2017-04-27T07:47:39.517Z,1015.22
2017-04-27T07:48:05.080Z,1015.21
2017-04-27T07:48:30.630Z,1015.22
2017-04-27T07:48:56.173Z,1015.23
2017-04-27T07:49:21.733Z,1015.22
2017-04-27T07:49:47.343Z,1015.25
2017-04-27T07:50:12.878Z,1015.24
2017-04-27T07:50:38.431Z,1015.25
2017-04-27T07:51:04.070Z,1015.22
2017-04-27T07:51:29.610Z,1015.24
2017-04-27T07:51:55.152Z,1015.24
2017-04-27T07:52:20.756Z,1015.22
2017-04-27T07:52:46.331Z,1015.29
2017-04-27T07:53:11.872Z,1015.26
2017-04-27T07:53:37.457Z,1015.25
2017-04-27T07:54:03.069Z,1015.23
2017-04-27T07:54:28.624Z,1015.24
2017-04-27T07:54:54.234Z,1015.24
2017-04-27T07:55:19.797Z,1015.19
2017-04-27T07:55:45.338Z,1015.26
2017-04-27T07:56:10.997Z,1015.23
2017-04-27T07:56:36.626Z,1015.28
2017-04-27T07:57:02.168Z,1015.24
2017-04-27T07:57:27.728Z,1015.26
2017-04-27T07:57:53.311Z,1015.23
2017-04-27T07:58:18.873Z,1015.28
2017-04-27T07:58:44.468Z,1015.22
2017-04-27T07:59:10.037Z,1015.24
2017-04-27T07:59:35.589Z,1015.24
2017-04-27T08:00:01.151Z,1015.23
2017-04-27T08:00:26.848Z,1015.23
2017-04-27T08:00:52.419Z,1015.21
2017-04-27T08:01:17.973Z,1015.28
2017-04-27T08:01:43.565Z,1015.28
2017-04-27T08:02:09.133Z,1015.23
2017-04-27T08:02:34.710Z,1015.26
2017-04-27T08:03:00.601Z,1015.27
2017-04-27T08:03:26.168Z,1015.25
2017-04-27T08:03:51.983Z,1015.25
2017-04-27T08:04:17.563Z,1015.24
2017-04-27T08:04:43.100Z,1015.25
2017-04-27T08:05:08.683Z,1015.23
2017-04-27T08:05:34.246Z,1015.21
2017-04-27T08:05:59.802Z,1015.22
2017-04-27T08:06:25.375Z,1015.23
2017-04-27T08:06:50.937Z,1015.2
2017-04-27T08:07:16.504Z,1015.23
2017-04-27T08:07:42.059Z,1015.22
2017-04-27T08:08:07.626Z,1015.26
2017-04-27T08:08:33.208Z,1015.19
2017-04-27T08:08:58.906Z,1015.23
2017-04-27T08:09:24.502Z,1015.19
2017-04-27T08:09:50.048Z,1015.17
2017-04-27T08:10:15.694Z,1015.2
2017-04-27T08:10:41.342Z,1015.2
2017-04-27T08:11:06.901Z,1015.18
2017-04-27T08:11:32.580Z,1015.2
2017-04-27T08:11:58.123Z,1015.23
2017-04-27T08:12:23.683Z,1015.22
2017-04-27T08:12:49.248Z,1015.23
2017-04-27T08:13:14.830Z,1015.2
2017-04-27T08:13:40.400Z,1015.2
2017-04-27T08:14:05.958Z,1015.24
2017-04-27T08:14:31.528Z,1015.18
2017-04-27T08:14:57.079Z,1015.21
2017-04-27T08:15:22.688Z,1015.23